sensor_id;sensor_type;location;lat;lon;timestamp;pressure;altitude;pressure_sealevel;temperature;humidity
65685;BME280;52405;50.844;-1.062;2023-02-28T00:01:05;103347.13;;;6.42;52.20
65685;BME280;52405;50.844;-1.062;2023-02-28T00:03:33;103350.75;;;6.44;53.25
65685;BME280;52405;50.844;-1.062;2023-02-28T00:06:06;103356.66;;;6.43;53.31
65685;BME280;52405;50.844;-1.062;2023-02-28T00:08:35;103352.91;;;6.40;52.40
65685;BME280;52405;50.844;-1.062;2023-02-28T00:11:05;103358.69;;;6.37;53.41
65685;BME280;52405;50.844;-1.062;2023-02-28T00:13:31;103345.22;;;6.31;52.54
65685;BME280;52405;50.844;-1.062;2023-02-28T00:16:03;103340.19;;;6.32;53.17
65685;BME280;52405;50.844;-1.062;2023-02-28T00:18:29;103359.16;;;6.33;53.35
65685;BME280;52405;50.844;-1.062;2023-02-28T00:20:54;103299.16;;;5.99;52.91
65685;BME280;52405;50.844;-1.062;2023-02-28T00:23:19;103310.34;;;6.08;52.39
65685;BME280;52405;50.844;-1.062;2023-02-28T00:25:45;103359.31;;;6.34;53.68
65685;BME280;52405;50.844;-1.062;2023-02-28T00:28:13;103341.75;;;6.22;53.01
65685;BME280;52405;50.844;-1.062;2023-02-28T00:30:41;103358.38;;;6.34;52.78
65685;BME280;52405;50.844;-1.062;2023-02-28T00:33:07;103341.91;;;6.23;52.75
65685;BME280;52405;50.844;-1.062;2023-02-28T00:35:35;103343.41;;;6.21;52.86
65685;BME280;52405;50.844;-1.062;2023-02-28T00:38:00;103328.16;;;6.05;52.60
65685;BME280;52405;50.844;-1.062;2023-02-28T00:40:25;103342.25;;;6.09;52.96
65685;BME280;52405;50.844;-1.062;2023-02-28T00:42:53;103372.44;;;6.10;53.32
65685;BME280;52405;50.844;-1.062;2023-02-28T00:45:21;103350.91;;;5.92;53.90
65685;BME280;52405;50.844;-1.062;2023-02-28T00:47:47;103332.88;;;5.74;53.41
65685;BME280;52405;50.844;-1.062;2023-02-28T00:50:17;103370.19;;;5.87;54.43
65685;BME280;52405;50.844;-1.062;2023-02-28T00:52:42;103348.50;;;5.67;53.69
65685;BME280;52405;50.844;-1.062;2023-02-28T00:55:08;103289.25;;;5.32;53.99
65685;BME280;52405;50.844;-1.062;2023-02-28T00:57:33;103353.97;;;5.62;54.52
65685;BME280;52405;50.844;-1.062;2023-02-28T00:59:59;103362.19;;;5.57;54.61
65685;BME280;52405;50.844;-1.062;2023-02-28T01:02:24;103370.50;;;5.64;55.03
65685;BME280;52405;50.844;-1.062;2023-02-28T01:04:52;103303.34;;;5.27;54.96
65685;BME280;52405;50.844;-1.062;2023-02-28T01:07:17;103366.44;;;5.57;55.13
65685;BME280;52405;50.844;-1.062;2023-02-28T01:09:47;103358.09;;;5.51;55.23
65685;BME280;52405;50.844;-1.062;2023-02-28T01:12:13;103336.41;;;5.40;54.56
65685;BME280;52405;50.844;-1.062;2023-02-28T01:14:38;103380.97;;;5.56;55.63
65685;BME280;52405;50.844;-1.062;2023-02-28T01:17:08;103346.84;;;5.33;54.99
65685;BME280;52405;50.844;-1.062;2023-02-28T01:19:34;103378.25;;;5.46;54.90
65685;BME280;52405;50.844;-1.062;2023-02-28T01:22:04;103372.78;;;5.34;55.13
65685;BME280;52405;50.844;-1.062;2023-02-28T01:24:29;103348.53;;;5.15;55.92
65685;BME280;52405;50.844;-1.062;2023-02-28T01:26:55;103362.31;;;5.15;55.88
65685;BME280;52405;50.844;-1.062;2023-02-28T01:29:25;103332.72;;;4.94;55.37
65685;BME280;52405;50.844;-1.062;2023-02-28T01:31:51;103362.44;;;4.99;56.04
65685;BME280;52405;50.844;-1.062;2023-02-28T01:34:16;103384.00;;;5.17;55.95
65685;BME280;52405;50.844;-1.062;2023-02-28T01:36:44;103355.16;;;4.95;56.69
65685;BME280;52405;50.844;-1.062;2023-02-28T01:39:09;103346.38;;;4.85;56.22
65685;BME280;52405;50.844;-1.062;2023-02-28T01:41:35;103356.22;;;4.89;56.58
65685;BME280;52405;50.844;-1.062;2023-02-28T01:47:10;103379.41;;;4.97;57.11
65685;BME280;52405;50.844;-1.062;2023-02-28T01:49:36;103363.03;;;4.88;57.92
65685;BME280;52405;50.844;-1.062;2023-02-28T01:52:02;103375.16;;;4.89;57.80
65685;BME280;52405;50.844;-1.062;2023-02-28T01:54:31;103347.25;;;4.68;57.58
65685;BME280;52405;50.844;-1.062;2023-02-28T01:57:08;103374.69;;;4.85;58.70
65685;BME280;52405;50.844;-1.062;2023-02-28T01:59:39;103380.13;;;4.79;58.90
65685;BME280;52405;50.844;-1.062;2023-02-28T02:02:15;103302.31;;;4.31;58.05
65685;BME280;52405;50.844;-1.062;2023-02-28T02:05:07;103358.88;;;4.64;58.65
65685;BME280;52405;50.844;-1.062;2023-02-28T02:07:35;103366.59;;;4.64;59.52
65685;BME280;52405;50.844;-1.062;2023-02-28T02:18:31;103351.38;;;4.41;59.83
65685;BME280;52405;50.844;-1.062;2023-02-28T02:29:21;103371.38;;;4.43;61.03
65685;BME280;52405;50.844;-1.062;2023-02-28T02:37:24;103375.75;;;4.36;60.43
65685;BME280;52405;50.844;-1.062;2023-02-28T02:39:53;103375.41;;;4.33;60.38
65685;BME280;52405;50.844;-1.062;2023-02-28T02:45:12;103334.41;;;4.01;61.79
65685;BME280;52405;50.844;-1.062;2023-02-28T02:47:40;103376.13;;;4.23;60.46
65685;BME280;52405;50.844;-1.062;2023-02-28T02:50:12;103383.41;;;4.27;61.77
65685;BME280;52405;50.844;-1.062;2023-02-28T02:52:45;103358.81;;;4.13;61.38
65685;BME280;52405;50.844;-1.062;2023-02-28T02:55:14;103386.25;;;4.21;61.79
65685;BME280;52405;50.844;-1.062;2023-02-28T02:57:54;103382.91;;;4.22;62.68
65685;BME280;52405;50.844;-1.062;2023-02-28T03:00:34;103380.03;;;4.19;61.70
65685;BME280;52405;50.844;-1.062;2023-02-28T03:03:03;103351.97;;;4.05;61.38
65685;BME280;52405;50.844;-1.062;2023-02-28T03:05:59;103368.69;;;4.17;62.31
65685;BME280;52405;50.844;-1.062;2023-02-28T03:08:26;103358.06;;;4.14;62.95
65685;BME280;52405;50.844;-1.062;2023-02-28T03:11:06;103310.41;;;3.84;62.31
65685;BME280;52405;50.844;-1.062;2023-02-28T03:13:50;103359.56;;;4.12;61.86
65685;BME280;52405;50.844;-1.062;2023-02-28T03:19:37;103366.63;;;4.06;63.59
65685;BME280;52405;50.844;-1.062;2023-02-28T03:25:07;103362.69;;;4.01;63.33
65685;BME280;52405;50.844;-1.062;2023-02-28T03:32:39;103352.91;;;3.90;64.38
65685;BME280;52405;50.844;-1.062;2023-02-28T03:35:14;103332.91;;;3.78;64.02
65685;BME280;52405;50.844;-1.062;2023-02-28T03:37:48;103368.41;;;3.98;63.69
65685;BME280;52405;50.844;-1.062;2023-02-28T03:40:23;103353.19;;;3.84;63.74
65685;BME280;52405;50.844;-1.062;2023-02-28T03:42:58;103366.88;;;3.92;63.62
65685;BME280;52405;50.844;-1.062;2023-02-28T03:45:28;103382.78;;;3.96;64.70
65685;BME280;52405;50.844;-1.062;2023-02-28T03:50:42;103384.44;;;3.96;65.61
65685;BME280;52405;50.844;-1.062;2023-02-28T03:53:27;103317.38;;;3.61;65.02
65685;BME280;52405;50.844;-1.062;2023-02-28T03:56:09;103363.34;;;3.82;65.02
65685;BME280;52405;50.844;-1.062;2023-02-28T03:58:57;103386.84;;;3.94;65.82
65685;BME280;52405;50.844;-1.062;2023-02-28T04:01:36;103376.38;;;3.93;66.08
65685;BME280;52405;50.844;-1.062;2023-02-28T04:04:03;103385.59;;;3.91;66.16
65685;BME280;52405;50.844;-1.062;2023-02-28T04:06:33;103383.03;;;3.91;66.24
65685;BME280;52405;50.844;-1.062;2023-02-28T04:08:59;103371.78;;;3.81;66.40
65685;BME280;52405;50.844;-1.062;2023-02-28T04:14:06;103384.97;;;3.84;67.37
65685;BME280;52405;50.844;-1.062;2023-02-28T04:16:36;103355.56;;;3.74;67.54
65685;BME280;52405;50.844;-1.062;2023-02-28T04:19:08;103372.03;;;3.92;66.79
65685;BME280;52405;50.844;-1.062;2023-02-28T04:21:36;103381.69;;;3.94;66.94
65685;BME280;52405;50.844;-1.062;2023-02-28T04:24:04;103373.94;;;3.85;66.27
65685;BME280;52405;50.844;-1.062;2023-02-28T04:26:34;103393.56;;;4.01;66.88
65685;BME280;52405;50.844;-1.062;2023-02-28T04:29:00;103398.25;;;4.05;66.95
65685;BME280;52405;50.844;-1.062;2023-02-28T04:31:28;103373.09;;;3.94;66.99
65685;BME280;52405;50.844;-1.062;2023-02-28T04:33:56;103393.13;;;4.05;67.30
65685;BME280;52405;50.844;-1.062;2023-02-28T04:36:24;103395.84;;;4.07;66.63
65685;BME280;52405;50.844;-1.062;2023-02-28T04:38:49;103407.50;;;4.12;67.03
65685;BME280;52405;50.844;-1.062;2023-02-28T04:41:17;103336.00;;;3.67;67.70
65685;BME280;52405;50.844;-1.062;2023-02-28T04:43:43;103399.00;;;4.04;67.48
65685;BME280;52405;50.844;-1.062;2023-02-28T04:46:08;103409.63;;;4.07;66.76
65685;BME280;52405;50.844;-1.062;2023-02-28T04:48:38;103406.53;;;4.02;67.44
65685;BME280;52405;50.844;-1.062;2023-02-28T04:51:14;103406.88;;;4.05;66.52
65685;BME280;52405;50.844;-1.062;2023-02-28T04:53:43;103416.25;;;4.05;66.94
65685;BME280;52405;50.844;-1.062;2023-02-28T04:56:12;103391.47;;;3.90;67.09
65685;BME280;52405;50.844;-1.062;2023-02-28T04:58:39;103404.09;;;3.95;67.74
65685;BME280;52405;50.844;-1.062;2023-02-28T05:01:17;103404.84;;;3.94;68.60
65685;BME280;52405;50.844;-1.062;2023-02-28T05:03:44;103375.25;;;3.82;68.21
65685;BME280;52405;50.844;-1.062;2023-02-28T05:06:11;103420.50;;;4.04;67.85
65685;BME280;52405;50.844;-1.062;2023-02-28T05:08:36;103360.53;;;3.72;68.40
65685;BME280;52405;50.844;-1.062;2023-02-28T05:11:03;103425.78;;;4.06;68.15
65685;BME280;52405;50.844;-1.062;2023-02-28T05:13:29;103421.41;;;4.05;68.13
65685;BME280;52405;50.844;-1.062;2023-02-28T05:15:55;103412.28;;;4.00;68.34
65685;BME280;52405;50.844;-1.062;2023-02-28T05:18:20;103415.94;;;4.02;67.81
65685;BME280;52405;50.844;-1.062;2023-02-28T05:20:46;103408.06;;;4.00;67.96
65685;BME280;52405;50.844;-1.062;2023-02-28T05:23:13;103406.97;;;3.98;68.30
65685;BME280;52405;50.844;-1.062;2023-02-28T05:25:39;103301.53;;;3.40;69.38
65685;BME280;52405;50.844;-1.062;2023-02-28T05:28:05;103363.75;;;3.78;68.53
65685;BME280;52405;50.844;-1.062;2023-02-28T05:30:31;103395.63;;;3.96;68.30
65685;BME280;52405;50.844;-1.062;2023-02-28T05:32:57;103401.09;;;3.99;68.24
65685;BME280;52405;50.844;-1.062;2023-02-28T05:35:27;103377.56;;;3.88;69.00
65685;BME280;52405;50.844;-1.062;2023-02-28T05:37:53;103341.56;;;3.63;69.27
65685;BME280;52405;50.844;-1.062;2023-02-28T05:40:18;103409.00;;;4.01;68.59
65685;BME280;52405;50.844;-1.062;2023-02-28T05:42:46;103362.22;;;3.72;69.10
65685;BME280;52405;50.844;-1.062;2023-02-28T05:45:12;103388.63;;;3.86;69.57
65685;BME280;52405;50.844;-1.062;2023-02-28T05:47:37;103416.19;;;3.96;69.24
65685;BME280;52405;50.844;-1.062;2023-02-28T05:50:06;103427.00;;;4.01;68.44
65685;BME280;52405;50.844;-1.062;2023-02-28T05:52:34;103423.91;;;3.96;69.57
65685;BME280;52405;50.844;-1.062;2023-02-28T05:55:00;103372.88;;;3.67;69.09
65685;BME280;52405;50.844;-1.062;2023-02-28T05:57:25;103434.53;;;3.99;69.23
65685;BME280;52405;50.844;-1.062;2023-02-28T05:59:51;103405.81;;;3.79;68.71
65685;BME280;52405;50.844;-1.062;2023-02-28T06:02:18;103382.59;;;3.70;68.97
65685;BME280;52405;50.844;-1.062;2023-02-28T06:04:44;103443.16;;;4.00;69.09
65685;BME280;52405;50.844;-1.062;2023-02-28T06:07:10;103397.41;;;3.89;69.07
65685;BME280;52405;50.844;-1.062;2023-02-28T06:09:37;103404.69;;;3.93;68.40
65685;BME280;52405;50.844;-1.062;2023-02-28T06:12:06;103430.63;;;4.03;69.25
65685;BME280;52405;50.844;-1.062;2023-02-28T06:14:33;103392.34;;;3.81;69.58
65685;BME280;52405;50.844;-1.062;2023-02-28T06:17:02;103430.78;;;4.04;69.38
65685;BME280;52405;50.844;-1.062;2023-02-28T06:19:27;103433.38;;;4.04;69.08
65685;BME280;52405;50.844;-1.062;2023-02-28T06:21:54;103386.16;;;3.79;68.69
65685;BME280;52405;50.844;-1.062;2023-02-28T06:24:24;103434.25;;;4.05;69.38
65685;BME280;52405;50.844;-1.062;2023-02-28T06:26:50;103404.34;;;3.90;69.22
65685;BME280;52405;50.844;-1.062;2023-02-28T06:29:20;103430.94;;;4.06;69.85
65685;BME280;52405;50.844;-1.062;2023-02-28T06:31:46;103396.00;;;3.83;69.49
65685;BME280;52405;50.844;-1.062;2023-02-28T06:34:13;103371.06;;;3.66;69.46
65685;BME280;52405;50.844;-1.062;2023-02-28T06:36:41;103429.84;;;4.04;68.83
65685;BME280;52405;50.844;-1.062;2023-02-28T06:39:12;103424.25;;;3.99;69.84
65685;BME280;52405;50.844;-1.062;2023-02-28T06:41:39;103434.25;;;4.05;69.33
65685;BME280;52405;50.844;-1.062;2023-02-28T06:44:14;103442.88;;;4.05;70.02
65685;BME280;52405;50.844;-1.062;2023-02-28T06:46:41;103405.84;;;3.88;69.81
65685;BME280;52405;50.844;-1.062;2023-02-28T06:49:07;103364.38;;;3.60;69.29
65685;BME280;52405;50.844;-1.062;2023-02-28T06:51:35;103419.75;;;3.90;69.30
65685;BME280;52405;50.844;-1.062;2023-02-28T06:54:01;103408.50;;;3.80;70.02
65685;BME280;52405;50.844;-1.062;2023-02-28T06:56:26;103378.44;;;3.63;69.35
65685;BME280;52405;50.844;-1.062;2023-02-28T06:58:51;103439.69;;;3.99;69.63
65685;BME280;52405;50.844;-1.062;2023-02-28T07:01:22;103446.97;;;4.03;69.01
65685;BME280;52405;50.844;-1.062;2023-02-28T07:03:49;103396.09;;;3.76;70.19
65685;BME280;52405;50.844;-1.062;2023-02-28T07:06:21;103465.75;;;4.11;69.44
65685;BME280;52405;50.844;-1.062;2023-02-28T07:08:48;103461.69;;;4.13;69.25
65685;BME280;52405;50.844;-1.062;2023-02-28T07:11:16;103470.66;;;4.17;68.66
65685;BME280;52405;50.844;-1.062;2023-02-28T07:13:42;103424.91;;;3.90;68.96
65685;BME280;52405;50.844;-1.062;2023-02-28T07:16:10;103435.44;;;4.00;68.74
65685;BME280;52405;50.844;-1.062;2023-02-28T07:18:36;103469.13;;;4.19;68.95
65685;BME280;52405;50.844;-1.062;2023-02-28T07:21:04;103474.03;;;4.24;69.43
65685;BME280;52405;50.844;-1.062;2023-02-28T07:23:30;103468.78;;;4.32;69.21
65685;BME280;52405;50.844;-1.062;2023-02-28T07:25:55;103384.22;;;3.85;68.18
65685;BME280;52405;50.844;-1.062;2023-02-28T07:28:23;103471.25;;;4.39;68.30
65685;BME280;52405;50.844;-1.062;2023-02-28T07:30:49;103466.44;;;4.42;68.22
65685;BME280;52405;50.844;-1.062;2023-02-28T07:33:15;103476.19;;;4.53;68.04
65685;BME280;52405;50.844;-1.062;2023-02-28T07:35:40;103443.25;;;4.42;67.80
65685;BME280;52405;50.844;-1.062;2023-02-28T07:38:06;103460.72;;;4.53;68.65
65685;BME280;52405;50.844;-1.062;2023-02-28T07:40:36;103472.47;;;4.67;68.61
65685;BME280;52405;50.844;-1.062;2023-02-28T07:43:03;103470.34;;;4.72;67.56
65685;BME280;52405;50.844;-1.062;2023-02-28T07:45:29;103476.16;;;4.78;67.38
65685;BME280;52405;50.844;-1.062;2023-02-28T07:47:55;103460.84;;;4.79;68.06
65685;BME280;52405;50.844;-1.062;2023-02-28T07:50:23;103468.78;;;4.90;67.72
65685;BME280;52405;50.844;-1.062;2023-02-28T07:52:49;103442.97;;;4.81;67.22
65685;BME280;52405;50.844;-1.062;2023-02-28T07:55:14;103467.16;;;4.99;67.99
65685;BME280;52405;50.844;-1.062;2023-02-28T07:57:41;103462.03;;;5.08;67.18
65685;BME280;52405;50.844;-1.062;2023-02-28T08:00:09;103454.88;;;5.05;66.84
65685;BME280;52405;50.844;-1.062;2023-02-28T08:02:35;103425.19;;;5.00;67.11
65685;BME280;52405;50.844;-1.062;2023-02-28T08:05:01;103470.09;;;5.28;67.48
65685;BME280;52405;50.844;-1.062;2023-02-28T08:07:27;103431.59;;;5.21;67.31
65685;BME280;52405;50.844;-1.062;2023-02-28T08:09:54;103430.06;;;5.23;66.74
65685;BME280;52405;50.844;-1.062;2023-02-28T08:12:22;103464.38;;;5.48;66.50
65685;BME280;52405;50.844;-1.062;2023-02-28T08:14:50;103472.56;;;5.53;65.87
65685;BME280;52405;50.844;-1.062;2023-02-28T08:17:16;103469.09;;;5.61;66.05
65685;BME280;52405;50.844;-1.062;2023-02-28T08:19:41;103469.84;;;5.69;66.28
65685;BME280;52405;50.844;-1.062;2023-02-28T08:22:07;103462.88;;;5.76;65.32
65685;BME280;52405;50.844;-1.062;2023-02-28T08:24:32;103407.53;;;5.55;65.38
65685;BME280;52405;50.844;-1.062;2023-02-28T08:26:58;103461.38;;;5.87;65.01
65685;BME280;52405;50.844;-1.062;2023-02-28T08:29:26;103397.66;;;5.60;65.20
65685;BME280;52405;50.844;-1.062;2023-02-28T08:31:51;103460.31;;;6.03;65.72
65685;BME280;52405;50.844;-1.062;2023-02-28T08:34:17;103458.19;;;6.07;64.51
65685;BME280;52405;50.844;-1.062;2023-02-28T08:36:43;103371.13;;;5.61;64.35
65685;BME280;52405;50.844;-1.062;2023-02-28T08:39:10;103444.81;;;6.11;64.46
65685;BME280;52405;50.844;-1.062;2023-02-28T08:41:35;103440.38;;;6.45;65.29
65685;BME280;52405;50.844;-1.062;2023-02-28T08:44:01;103444.91;;;7.12;63.72
65685;BME280;52405;50.844;-1.062;2023-02-28T08:46:27;103422.06;;;7.63;62.47
65685;BME280;52405;50.844;-1.062;2023-02-28T08:48:55;103430.53;;;8.29;59.89
65685;BME280;52405;50.844;-1.062;2023-02-28T08:51:21;103391.94;;;8.52;59.17
65685;BME280;52405;50.844;-1.062;2023-02-28T08:53:52;103454.59;;;9.28;58.88
65685;BME280;52405;50.844;-1.062;2023-02-28T08:56:19;103441.06;;;9.73;58.06
65685;BME280;52405;50.844;-1.062;2023-02-28T08:58:45;103445.00;;;10.11;55.51
65685;BME280;52405;50.844;-1.062;2023-02-28T09:01:15;103444.03;;;10.31;54.13
65685;BME280;52405;50.844;-1.062;2023-02-28T09:03:42;103448.53;;;10.44;53.97
65685;BME280;52405;50.844;-1.062;2023-02-28T09:06:09;103452.81;;;10.43;52.96
65685;BME280;52405;50.844;-1.062;2023-02-28T09:08:35;103438.44;;;10.36;52.44
65685;BME280;52405;50.844;-1.062;2023-02-28T09:11:01;103448.53;;;10.44;52.58
65685;BME280;52405;50.844;-1.062;2023-02-28T09:13:28;103432.47;;;10.27;51.20
65685;BME280;52405;50.844;-1.062;2023-02-28T09:16:00;103433.47;;;10.29;51.54
65685;BME280;52405;50.844;-1.062;2023-02-28T09:18:26;103430.66;;;10.26;51.67
65685;BME280;52405;50.844;-1.062;2023-02-28T09:20:52;103415.25;;;10.17;50.51
65685;BME280;52405;50.844;-1.062;2023-02-28T09:23:18;103425.22;;;10.23;51.44
65685;BME280;52405;50.844;-1.062;2023-02-28T09:25:51;103405.66;;;10.16;50.30
65685;BME280;52405;50.844;-1.062;2023-02-28T09:28:18;103441.69;;;10.23;50.52
65685;BME280;52405;50.844;-1.062;2023-02-28T09:30:48;103435.13;;;10.17;50.37
65685;BME280;52405;50.844;-1.062;2023-02-28T09:33:15;103427.34;;;10.07;50.36
65685;BME280;52405;50.844;-1.062;2023-02-28T09:35:41;103385.41;;;9.80;51.16
65685;BME280;52405;50.844;-1.062;2023-02-28T09:38:08;103425.72;;;9.97;50.44
65685;BME280;52405;50.844;-1.062;2023-02-28T09:40:40;103443.75;;;9.95;50.42
65685;BME280;52405;50.844;-1.062;2023-02-28T09:43:15;103444.00;;;9.98;50.92
65685;BME280;52405;50.844;-1.062;2023-02-28T09:45:59;103434.66;;;9.90;50.50
65685;BME280;52405;50.844;-1.062;2023-02-28T09:48:39;103422.09;;;9.84;50.36
65685;BME280;52405;50.844;-1.062;2023-02-28T09:51:48;103440.31;;;9.74;50.95
65685;BME280;52405;50.844;-1.062;2023-02-28T09:54:18;103379.66;;;9.41;51.55
65685;BME280;52405;50.844;-1.062;2023-02-28T09:56:48;103410.34;;;9.57;51.71
65685;BME280;52405;50.844;-1.062;2023-02-28T10:05:11;103437.13;;;9.36;52.64
65685;BME280;52405;50.844;-1.062;2023-02-28T10:10:47;103410.22;;;8.84;53.11
65685;BME280;52405;50.844;-1.062;2023-02-28T10:15:52;103424.09;;;8.64;53.79
65685;BME280;52405;50.844;-1.062;2023-02-28T10:18:27;103408.75;;;8.46;53.70
65685;BME280;52405;50.844;-1.062;2023-02-28T10:20:55;103454.91;;;8.61;54.07
65685;BME280;52405;50.844;-1.062;2023-02-28T10:23:34;103357.78;;;7.97;54.24
65685;BME280;52405;50.844;-1.062;2023-02-28T10:26:05;103437.50;;;8.49;54.26
65685;BME280;52405;50.844;-1.062;2023-02-28T10:28:35;103445.44;;;8.51;54.24
65685;BME280;52405;50.844;-1.062;2023-02-28T10:31:03;103426.38;;;8.51;54.69
65685;BME280;52405;50.844;-1.062;2023-02-28T10:33:33;103435.50;;;8.76;53.17
65685;BME280;52405;50.844;-1.062;2023-02-28T10:36:08;103437.06;;;8.95;53.65
65685;BME280;52405;50.844;-1.062;2023-02-28T10:38:39;103415.34;;;9.03;53.04
65685;BME280;52405;50.844;-1.062;2023-02-28T10:43:37;103415.53;;;9.57;52.40
65685;BME280;52405;50.844;-1.062;2023-02-28T10:48:41;103411.22;;;10.11;50.83
65685;BME280;52405;50.844;-1.062;2023-02-28T10:51:14;103387.50;;;10.06;50.13
65685;BME280;52405;50.844;-1.062;2023-02-28T11:01:24;103403.28;;;10.19;50.88
65685;BME280;52405;50.844;-1.062;2023-02-28T11:03:51;103402.59;;;10.32;50.39
65685;BME280;52405;50.844;-1.062;2023-02-28T11:06:20;103388.44;;;10.29;50.19
65685;BME280;52405;50.844;-1.062;2023-02-28T11:09:38;103391.22;;;10.42;49.69
65685;BME280;52405;50.844;-1.062;2023-02-28T11:11:44;103382.25;;;10.49;49.22
65685;BME280;52405;50.844;-1.062;2023-02-28T11:14:24;103392.34;;;10.56;48.91
65685;BME280;52405;50.844;-1.062;2023-02-28T11:16:51;103396.03;;;10.70;49.57
65685;BME280;52405;50.844;-1.062;2023-02-28T11:19:39;103420.38;;;10.82;49.46
65685;BME280;52405;50.844;-1.062;2023-02-28T11:22:05;103385.09;;;10.86;49.25
65685;BME280;52405;50.844;-1.062;2023-02-28T11:24:36;103389.25;;;11.06;49.24
65685;BME280;52405;50.844;-1.062;2023-02-28T11:27:03;103408.72;;;11.11;48.46
65685;BME280;52405;50.844;-1.062;2023-02-28T11:29:30;103385.34;;;10.89;48.00
65685;BME280;52405;50.844;-1.062;2023-02-28T11:34:35;103414.84;;;10.55;49.96
65685;BME280;52405;50.844;-1.062;2023-02-28T11:37:02;103391.66;;;10.36;50.75
65685;BME280;52405;50.844;-1.062;2023-02-28T11:39:33;103404.97;;;10.19;51.10
65685;BME280;52405;50.844;-1.062;2023-02-28T11:47:27;103397.22;;;9.66;52.41
65685;BME280;52405;50.844;-1.062;2023-02-28T11:52:55;103390.94;;;9.52;53.33
65685;BME280;52405;50.844;-1.062;2023-02-28T11:55:25;103389.34;;;9.54;53.05
65685;BME280;52405;50.844;-1.062;2023-02-28T12:11:09;103364.44;;;9.56;53.69
65685;BME280;52405;50.844;-1.062;2023-02-28T12:14:06;103357.16;;;9.62;53.41
65685;BME280;52405;50.844;-1.062;2023-02-28T12:22:29;103342.00;;;9.57;53.96
65685;BME280;52405;50.844;-1.062;2023-02-28T12:27:36;103342.09;;;9.69;53.47
65685;BME280;52405;50.844;-1.062;2023-02-28T12:32:46;103296.88;;;9.44;54.41
65685;BME280;52405;50.844;-1.062;2023-02-28T12:35:21;103329.13;;;9.69;54.36
65685;BME280;52405;50.844;-1.062;2023-02-28T12:37:57;103261.50;;;9.35;54.39
65685;BME280;52405;50.844;-1.062;2023-02-28T12:40:40;103278.09;;;9.37;55.00
65685;BME280;52405;50.844;-1.062;2023-02-28T12:43:09;103285.19;;;9.50;54.37
65685;BME280;52405;50.844;-1.062;2023-02-28T12:45:43;103248.81;;;9.38;54.56
65685;BME280;52405;50.844;-1.062;2023-02-28T12:48:15;103278.53;;;9.63;54.88
65685;BME280;52405;50.844;-1.062;2023-02-28T12:50:45;103279.44;;;9.64;55.03
65685;BME280;52405;50.844;-1.062;2023-02-28T12:53:23;103285.63;;;9.76;54.95
65685;BME280;52405;50.844;-1.062;2023-02-28T12:59:37;103309.31;;;9.81;54.52
65685;BME280;52405;50.844;-1.062;2023-02-28T13:09:55;103287.09;;;9.62;54.64
65685;BME280;52405;50.844;-1.062;2023-02-28T13:12:24;103294.13;;;9.53;55.10
65685;BME280;52405;50.844;-1.062;2023-02-28T13:14:50;103282.72;;;9.51;55.35
65685;BME280;52405;50.844;-1.062;2023-02-28T13:17:24;103265.88;;;9.46;55.45
65685;BME280;52405;50.844;-1.062;2023-02-28T13:22:43;103231.53;;;9.49;56.36
65685;BME280;52405;50.844;-1.062;2023-02-28T13:27:51;103203.59;;;9.56;56.26
65685;BME280;52405;50.844;-1.062;2023-02-28T13:33:35;103219.78;;;9.54;56.05
65685;BME280;52405;50.844;-1.062;2023-02-28T13:38:38;103207.50;;;9.51;56.66
65685;BME280;52405;50.844;-1.062;2023-02-28T13:41:43;103191.69;;;9.48;56.31
65685;BME280;52405;50.844;-1.062;2023-02-28T13:44:21;103201.03;;;9.46;56.94
65685;BME280;52405;50.844;-1.062;2023-02-28T13:57:44;103206.03;;;9.33;56.90
65685;BME280;52405;50.844;-1.062;2023-02-28T14:05:15;103175.94;;;9.02;57.29
65685;BME280;52405;50.844;-1.062;2023-02-28T14:07:46;103203.72;;;9.25;57.16
65685;BME280;52405;50.844;-1.062;2023-02-28T14:10:39;103207.47;;;9.29;57.23
65685;BME280;52405;50.844;-1.062;2023-02-28T14:13:14;103205.91;;;9.31;57.24
65685;BME280;52405;50.844;-1.062;2023-02-28T14:15:55;103189.97;;;9.26;57.72
65685;BME280;52405;50.844;-1.062;2023-02-28T14:21:02;103153.50;;;9.03;57.23
65685;BME280;52405;50.844;-1.062;2023-02-28T14:32:13;103183.50;;;9.21;57.79
65685;BME280;52405;50.844;-1.062;2023-02-28T14:34:51;103212.66;;;9.29;57.64
65685;BME280;52405;50.844;-1.062;2023-02-28T14:37:27;103200.09;;;9.23;57.63
65685;BME280;52405;50.844;-1.062;2023-02-28T14:39:55;103136.81;;;8.89;57.55
65685;BME280;52405;50.844;-1.062;2023-02-28T14:44:56;103113.38;;;8.87;57.34
65685;BME280;52405;50.844;-1.062;2023-02-28T14:47:28;103177.53;;;9.22;58.15
65685;BME280;52405;50.844;-1.062;2023-02-28T14:49:58;103161.50;;;9.16;57.74
65685;BME280;52405;50.844;-1.062;2023-02-28T14:52:30;103157.16;;;9.27;57.84
65685;BME280;52405;50.844;-1.062;2023-02-28T14:55:04;103156.63;;;9.31;57.69
65685;BME280;52405;50.844;-1.062;2023-02-28T14:57:40;103138.88;;;9.25;57.90
65685;BME280;52405;50.844;-1.062;2023-02-28T15:00:14;103153.00;;;9.29;57.71
65685;BME280;52405;50.844;-1.062;2023-02-28T15:02:41;103149.50;;;9.29;57.34
65685;BME280;52405;50.844;-1.062;2023-02-28T15:05:21;103155.34;;;9.26;57.47
65685;BME280;52405;50.844;-1.062;2023-02-28T15:07:48;103142.03;;;9.21;57.88
65685;BME280;52405;50.844;-1.062;2023-02-28T15:10:21;103137.59;;;9.20;57.87
65685;BME280;52405;50.844;-1.062;2023-02-28T15:12:59;103142.03;;;9.21;58.46
65685;BME280;52405;50.844;-1.062;2023-02-28T15:15:41;103132.28;;;9.19;57.99
65685;BME280;52405;50.844;-1.062;2023-02-28T15:18:15;103141.91;;;9.20;58.72
65685;BME280;52405;50.844;-1.062;2023-02-28T15:20:44;103087.72;;;8.91;58.04
65685;BME280;52405;50.844;-1.062;2023-02-28T15:23:10;103068.06;;;8.82;58.24
65685;BME280;52405;50.844;-1.062;2023-02-28T15:25:36;103141.91;;;9.20;58.13
65685;BME280;52405;50.844;-1.062;2023-02-28T15:28:02;103071.81;;;8.86;58.55
65685;BME280;52405;50.844;-1.062;2023-02-28T15:30:31;103061.72;;;8.79;59.07
65685;BME280;52405;50.844;-1.062;2023-02-28T15:35:44;103100.50;;;8.99;58.95
65685;BME280;52405;50.844;-1.062;2023-02-28T15:38:25;103140.63;;;9.15;58.59
65685;BME280;52405;50.844;-1.062;2023-02-28T15:40:56;103135.84;;;9.09;59.07